Time;durP1;ratioP1;P1;durP2;ratioP2;P2;SDS_P1;SDS_P2;PMS_P1;PMS_P2;Temp;Humidity;BMP_temperature;BMP_pressure;BME280_temperature;BME280_humidity;BME280_pressure;Samples;Min_cycle;Max_cycle;Signal;HPM_P1;HPM_P2
2021/04/02 00:02:12;;;;;;;5.57;4.80;;;9.50;99.90;;;10.14;37.18;94300.94;4968935;28;20250;-83
2021/04/02 00:04:46;;;;;;;6.87;4.70;;;9.50;99.90;;;10.14;37.50;94310.78;4985680;28;20172;-83
2021/04/02 00:07:19;;;;;;;8.87;4.70;;;9.50;99.90;;;10.09;37.80;94303.53;4984004;28;20296;-83
2021/04/02 00:10:23;;;;;;;7.17;4.27;;;9.50;99.90;;;10.13;37.69;94309.13;4984101;28;20163;-83
2021/04/02 00:12:51;;;;;;;9.27;4.97;;;9.50;99.90;;;10.08;37.69;94304.59;4983449;28;20205;-83
2021/04/02 00:15:21;;;;;;;9.37;4.73;;;9.40;99.90;;;10.02;38.19;94299.50;4967070;28;20565;-83
2021/04/02 00:17:49;;;;;;;11.77;5.00;;;9.30;99.90;;;9.95;38.13;94301.53;4984029;28;20205;-83
2021/04/02 00:20:35;;;;;;;7.23;4.73;;;9.30;99.90;;;10.00;37.94;94302.41;4982622;28;20186;-82
2021/04/02 00:23:09;;;;;;;8.80;4.80;;;9.30;99.90;;;10.01;38.43;94295.22;4967264;28;20192;-83
2021/04/02 00:25:37;;;;;;;8.60;4.83;;;9.30;99.90;;;10.03;38.51;94301.91;4982845;28;20144;-83
2021/04/02 00:28:05;;;;;;;9.43;4.80;;;9.40;99.90;;;10.13;38.13;94302.00;4974888;28;20205;-84
2021/04/02 00:30:45;;;;;;;8.77;4.77;;;9.40;99.90;;;10.14;38.42;94295.66;4966387;28;20754;-83
2021/04/02 00:33:26;;;;;;;7.80;4.90;;;9.40;99.90;;;10.28;38.79;94307.44;5008559;28;20243;-83
2021/04/02 00:35:53;;;;;;;8.53;4.90;;;9.50;99.90;;;10.39;38.22;94299.56;5045797;28;20252;-83
2021/04/02 00:38:20;;;;;;;6.73;4.37;;;9.50;99.90;;;10.41;38.50;94287.66;5045270;28;20201;-83
2021/04/02 00:41:17;;;;;;;13.60;4.70;;;9.60;99.90;;;10.31;38.68;94284.16;5060600;28;20541;-83
2021/04/02 00:44:09;;;;;;;6.63;4.53;;;9.60;99.90;;;10.29;38.93;94284.41;5045296;28;20163;-83
2021/04/02 00:46:39;;;;;;;7.47;4.60;;;9.60;99.90;;;10.35;39.28;94293.19;5044387;28;20635;-83
2021/04/02 00:49:06;;;;;;;8.80;4.60;;;9.70;99.90;;;10.37;39.16;94283.16;5059852;28;20623;-84
2021/04/02 00:51:35;;;;;;;6.70;4.00;;;9.80;99.90;;;10.40;39.22;94285.28;5043720;28;20163;-84
2021/04/02 00:54:01;;;;;;;7.30;4.60;;;9.80;99.90;;;10.46;39.15;94279.78;5061076;28;20184;-84
2021/04/02 00:56:35;;;;;;;8.00;5.00;;;9.80;99.90;;;10.34;39.20;94287.09;5028186;28;20265;-82
2021/04/02 00:59:05;;;;;;;6.13;4.47;;;9.80;99.90;;;10.33;39.63;94276.75;5043856;28;20173;-83
2021/04/02 01:01:32;;;;;;;6.40;4.60;;;9.80;99.90;;;10.22;39.37;94276.66;5049285;28;20661;-83
2021/04/02 01:04:04;;;;;;;6.53;4.20;;;9.70;99.90;;;10.12;40.07;94270.44;5063412;28;20190;-83
2021/04/02 01:06:32;;;;;;;10.77;4.87;;;9.60;99.90;;;10.04;40.14;94263.75;5044697;28;20182;-83
2021/04/02 01:09:00;;;;;;;7.80;4.30;;;9.50;99.90;;;10.08;39.94;94272.00;5025332;28;20698;-83
2021/04/02 01:11:33;;;;;;;6.93;4.77;;;9.50;99.90;;;10.03;39.94;94267.47;5015201;28;20190;-83
2021/04/02 01:14:01;;;;;;;5.80;4.50;;;9.50;99.90;;;10.15;39.96;94267.31;5025936;28;20203;-83
2021/04/02 01:16:36;;;;;;;7.93;4.60;;;9.50;99.90;;;10.07;39.83;94265.13;5026588;28;20526;-83
2021/04/02 01:19:42;;;;;;;7.40;5.00;;;9.50;99.90;;;10.11;40.30;94266.19;5025997;28;20856;-83
2021/04/02 01:22:29;;;;;;;6.33;4.93;;;9.50;99.90;;;10.13;40.27;94256.97;5025190;28;20266;-83
2021/04/02 01:25:44;;;;;;;5.80;4.30;;;9.50;99.90;;;9.92;40.53;94259.69;5040874;28;20292;-83
2021/04/02 01:28:59;;;;;;;5.90;4.27;;;9.40;99.90;;;9.80;40.34;94265.16;4959741;28;20195;-83
2021/04/02 01:31:29;;;;;;;4.70;4.07;;;9.30;99.90;;;9.74;41.13;94263.47;4962694;29;20185;-83
2021/04/02 01:33:59;;;;;;;9.67;4.50;;;9.20;99.90;;;9.80;41.01;94260.63;4944168;28;20226;-83
2021/04/02 01:36:26;;;;;;;6.87;5.00;;;9.20;99.90;;;9.67;40.86;94260.25;4927547;28;20291;-83
2021/04/02 01:38:56;;;;;;;8.47;4.63;;;9.10;99.90;;;9.69;41.26;94260.78;4943073;29;20678;-84
2021/04/02 01:41:28;;;;;;;8.27;4.67;;;9.10;99.90;;;9.67;40.69;94262.91;4949795;28;20194;-83
2021/04/02 01:44:00;;;;;;;7.13;5.17;;;9.10;99.90;;;9.69;41.20;94266.09;4962134;28;20176;-83
2021/04/02 01:46:27;;;;;;;7.23;4.50;;;9.10;99.90;;;9.56;41.33;94258.53;4947074;29;20191;-83
2021/04/02 01:49:01;;;;;;;7.83;5.10;;;9.00;99.90;;;9.50;41.22;94262.19;4947144;29;20167;-84
2021/04/02 01:51:41;;;;;;;6.73;5.03;;;8.90;99.90;;;9.44;41.62;94253.38;4946844;28;20181;-83
2021/04/02 01:54:22;;;;;;;7.30;4.83;;;8.90;99.90;;;9.42;41.81;94262.63;4962539;29;20192;-83
2021/04/02 01:56:53;;;;;;;5.53;4.60;;;8.80;99.90;;;9.36;41.86;94253.84;4945724;28;20182;-83
2021/04/02 01:59:31;;;;;;;6.33;4.80;;;8.80;99.90;;;9.41;41.56;94255.72;4946025;29;20202;-83
2021/04/02 02:01:59;;;;;;;6.93;4.60;;;8.80;99.90;;;9.36;41.94;94253.03;4946229;28;20176;-83
2021/04/02 02:04:46;;;;;;;8.07;4.73;;;8.70;99.90;;;9.37;41.69;94257.28;5007667;28;20200;-83
2021/04/02 02:07:23;;;;;;;7.30;5.00;;;8.80;99.90;;;9.32;42.26;94254.56;5027455;28;20179;-83
2021/04/02 02:09:53;;;;;;;7.27;4.83;;;8.70;99.90;;;9.33;42.49;94261.47;5028510;28;20179;-84
2021/04/02 02:12:20;;;;;;;8.67;4.73;;;8.70;99.90;;;9.35;41.98;94259.38;5060735;28;20193;-83
2021/04/02 02:15:04;;;;;;;8.03;5.30;;;8.70;99.90;;;9.42;42.22;94265.25;5044325;28;20823;-83
2021/04/02 02:17:44;;;;;;;6.73;4.70;;;8.80;99.90;;;9.47;42.70;94260.06;5028162;28;20327;-83
2021/04/02 02:20:43;;;;;;;8.07;4.77;;;8.80;99.90;;;9.47;42.61;94265.34;5044248;28;20179;-83
2021/04/02 02:23:10;;;;;;;7.87;4.43;;;8.90;99.90;;;9.58;42.37;94259.09;4981088;28;20210;-83
2021/04/02 02:25:40;;;;;;;6.57;4.40;;;8.90;99.90;;;9.57;42.82;94254.88;4964419;28;20213;-83
2021/04/02 02:28:17;;;;;;;6.93;4.87;;;9.00;99.90;;;9.54;42.32;94250.03;4980618;28;20279;-83
2021/04/02 02:30:48;;;;;;;6.27;4.60;;;8.90;99.90;;;9.56;42.91;94255.91;4964899;28;20192;-83
2021/04/02 02:33:15;;;;;;;5.90;4.70;;;8.90;99.90;;;9.52;43.36;94255.59;4964364;28;20419;-83
2021/04/02 02:35:43;;;;;;;10.40;4.70;;;8.90;99.90;;;9.44;42.98;94257.88;4964451;28;20180;-83
2021/04/02 02:38:10;;;;;;;6.90;5.00;;;8.80;99.90;;;9.28;42.96;94251.63;4980327;28;20207;-83
2021/04/02 02:40:38;;;;;;;10.57;4.80;;;8.70;99.90;;;9.27;42.92;94248.19;4961268;28;20250;-83
2021/04/02 02:43:16;;;;;;;6.37;4.13;;;8.80;99.90;;;9.28;43.55;94251.63;4948780;29;20190;-83
2021/04/02 02:45:45;;;;;;;6.80;4.70;;;8.70;99.90;;;9.21;43.58;94251.81;4964622;29;20183;-83
2021/04/02 02:49:06;;;;;;;8.67;4.80;;;8.70;99.90;;;9.23;43.85;94256.88;4948664;28;20774;-83
2021/04/02 02:51:44;;;;;;;8.03;4.77;;;8.70;99.90;;;9.17;44.00;94250.69;4916545;29;20217;-84
2021/04/02 02:54:35;;;;;;;7.23;4.60;;;8.60;99.90;;;9.10;43.70;94254.56;4930236;29;20260;-83
2021/04/02 02:57:03;;;;;;;7.10;4.47;;;8.50;99.90;;;8.97;43.70;94249.66;4946637;29;20201;-83
2021/04/02 02:59:34;;;;;;;7.17;4.60;;;8.40;99.90;;;8.87;43.75;94249.53;4975917;28;20200;-83
2021/04/02 03:02:10;;;;;;;6.33;4.50;;;8.30;99.90;;;8.85;43.34;94243.69;4988206;28;20218;-83
2021/04/02 03:04:39;;;;;;;8.00;4.37;;;8.30;99.90;;;8.79;43.78;94247.31;4988015;28;20167;-83
2021/04/02 03:07:09;;;;;;;7.13;4.90;;;8.20;99.90;;;8.64;43.90;94245.28;5004015;28;20851;-83
2021/04/02 03:09:58;;;;;;;7.83;4.30;;;8.10;99.90;;;8.64;44.00;94256.63;4987696;28;20227;-83
2021/04/02 03:12:36;;;;;;;8.23;5.07;;;8.00;99.90;;;8.64;43.80;94250.56;4987430;28;20687;-83
2021/04/02 03:15:07;;;;;;;7.17;5.10;;;8.00;99.90;;;8.56;44.36;94258.91;5003927;28;20264;-83
2021/04/02 03:17:38;;;;;;;6.77;4.77;;;7.90;99.90;;;8.45;44.56;94252.69;4987895;28;20198;-84
2021/04/02 03:20:19;;;;;;;6.23;5.00;;;7.90;99.90;;;8.35;44.39;94251.72;5002799;28;20189;-83
2021/04/02 03:22:49;;;;;;;8.53;5.10;;;7.80;99.90;;;8.30;43.85;94254.28;4987718;28;20963;-83
2021/04/02 03:25:23;;;;;;;9.00;4.67;;;7.70;99.90;;;8.17;44.77;94253.53;4970381;28;20227;-83
2021/04/02 03:27:54;;;;;;;6.60;4.80;;;7.70;99.90;;;8.11;44.75;94249.22;5017061;28;20207;-83
2021/04/02 03:30:24;;;;;;;8.37;4.93;;;7.60;99.90;;;8.15;44.72;94253.00;5010123;28;20176;-83
2021/04/02 03:33:04;;;;;;;10.20;4.77;;;7.50;99.90;;;8.14;44.90;94246.09;5055539;28;20213;-83
2021/04/02 03:35:35;;;;;;;9.57;5.30;;;7.50;99.90;;;7.98;44.81;94241.63;5047242;28;20410;-83
2021/04/02 03:38:03;;;;;;;7.53;4.73;;;7.40;99.90;;;7.94;45.21;94235.22;5046782;28;20191;-83
2021/04/02 03:40:32;;;;;;;4.80;4.13;;;7.30;99.90;;;7.97;45.22;94234.75;5046721;28;20174;-83
2021/04/02 03:43:00;;;;;;;5.67;4.57;;;7.30;99.90;;;8.00;44.89;94236.09;5046369;28;20168;-83
2021/04/02 03:45:57;;;;;;;7.80;5.43;;;7.30;99.90;;;7.93;45.32;94243.38;5046658;28;20197;-84
2021/04/02 03:48:31;;;;;;;8.60;5.47;;;7.30;99.90;;;7.81;45.14;94243.47;4964709;28;20201;-83
2021/04/02 03:51:12;;;;;;;7.47;5.03;;;7.20;99.90;;;7.72;45.48;94244.91;4964068;28;20669;-83
2021/04/02 03:54:06;;;;;;;8.20;5.43;;;7.20;99.90;;;7.68;45.43;94251.69;4948539;29;20297;-83
2021/04/02 03:56:35;;;;;;;7.87;5.70;;;7.10;99.90;;;7.59;45.29;94253.88;4947392;28;20241;-83
2021/04/02 03:59:15;;;;;;;9.87;5.10;;;7.00;99.90;;;7.47;45.71;94249.72;4948260;28;20287;-83
2021/04/02 04:01:46;;;;;;;6.80;4.77;;;6.90;99.90;;;7.41;45.17;94242.75;4945353;28;20196;-83
2021/04/02 04:04:14;;;;;;;7.67;5.73;;;6.90;99.90;;;7.49;46.01;94251.06;4953436;28;20202;-83
2021/04/02 04:06:42;;;;;;;9.00;5.00;;;6.90;99.90;;;7.46;45.78;94248.09;4954899;29;20681;-83
2021/04/02 04:09:24;;;;;;;8.50;4.80;;;6.90;99.90;;;7.51;46.28;94258.75;4948274;28;20183;-83
2021/04/02 04:11:51;;;;;;;6.67;4.77;;;6.80;99.90;;;7.59;45.77;94255.72;4948372;29;20195;-83
2021/04/02 04:14:20;;;;;;;8.53;4.60;;;6.90;99.90;;;7.49;46.30;94251.06;4948424;28;20204;-83
2021/04/02 04:16:48;;;;;;;5.80;4.63;;;6.80;99.90;;;7.39;46.02;94250.06;4947814;29;20180;-83
2021/04/02 04:19:18;;;;;;;7.30;5.20;;;6.70;99.90;;;7.35;45.82;94252.41;4955027;28;20182;-83
2021/04/02 04:21:47;;;;;;;10.03;5.53;;;6.70;99.90;;;7.27;46.46;94246.69;4983115;28;20171;-82
2021/04/02 04:24:20;;;;;;;7.80;5.13;;;6.70;99.90;;;7.34;46.23;94257.91;4951090;28;20194;-82
2021/04/02 04:26:50;;;;;;;6.50;4.77;;;6.70;99.90;;;7.32;46.18;94252.09;5038862;28;20741;-83
2021/04/02 04:29:46;;;;;;;5.47;4.80;;;6.70;99.90;;;7.26;46.58;94263.53;5044450;28;20176;-83
2021/04/02 04:32:36;;;;;;;8.00;5.23;;;6.60;99.90;;;7.16;46.37;94251.78;5060288;28;20208;-82
2021/04/02 04:35:03;;;;;;;8.83;5.23;;;6.60;99.90;;;7.16;46.93;94256.25;5029473;28;20180;-82
2021/04/02 04:37:30;;;;;;;8.17;5.50;;;6.50;99.90;;;7.11;46.87;94256.97;5061177;28;20177;-83
2021/04/02 04:40:00;;;;;;;9.47;5.10;;;6.50;99.90;;;7.05;46.77;94251.84;5044370;28;20219;-82
2021/04/02 04:42:33;;;;;;;6.27;4.70;;;6.40;99.90;;;7.09;47.16;94239.75;5028216;28;20180;-83
2021/04/02 04:45:03;;;;;;;7.00;5.10;;;6.40;99.90;;;7.05;46.96;94251.84;5044064;28;20209;-83
2021/04/02 04:47:33;;;;;;;9.90;5.73;;;6.40;99.90;;;7.17;47.28;94249.94;5027966;28;20198;-83
2021/04/02 04:50:09;;;;;;;12.37;5.23;;;6.40;99.90;;;7.17;47.05;94256.03;5028243;28;20181;-83
2021/04/02 04:52:45;;;;;;;7.00;5.17;;;6.40;99.90;;;7.18;47.39;94247.06;5028728;28;20192;-83
2021/04/02 04:55:15;;;;;;;8.47;5.37;;;6.50;99.90;;;7.08;46.98;94260.06;5044887;28;20173;-83
2021/04/02 04:57:49;;;;;;;9.53;5.27;;;6.40;99.90;;;7.07;47.93;94252.38;5060739;28;20164;-83
2021/04/02 05:00:22;;;;;;;9.33;5.07;;;6.30;99.90;;;7.05;47.13;94243.94;5044599;28;20629;-83
2021/04/02 05:02:49;;;;;;;8.93;5.27;;;6.40;99.90;;;7.10;47.45;94241.38;5059250;28;20272;-83
2021/04/02 05:05:26;;;;;;;8.40;4.90;;;6.40;99.90;;;7.05;47.62;94247.34;5059026;28;20232;-82
2021/04/02 05:08:09;;;;;;;7.57;4.80;;;6.30;99.90;;;7.01;47.80;94258.59;5028247;28;20180;-82
2021/04/02 05:10:38;;;;;;;8.83;5.00;;;6.30;99.90;;;7.03;47.60;94252.06;5024514;28;20184;-81
2021/04/02 05:13:44;;;;;;;8.63;5.50;;;6.40;99.90;;;7.01;47.43;94255.97;5041050;28;20306;-81
2021/04/02 05:16:21;;;;;;;8.47;5.50;;;6.30;99.90;;;7.05;47.81;94254.47;4949410;29;20175;-81
2021/04/02 05:18:59;;;;;;;7.90;5.03;;;6.30;99.90;;;7.01;47.86;94253.31;4958008;29;20176;-82
2021/04/02 05:21:29;;;;;;;12.23;5.20;;;6.30;99.90;;;6.97;47.93;94260.09;4958192;29;20195;-81
2021/04/02 05:24:09;;;;;;;12.37;5.30;;;6.30;99.90;;;6.97;47.60;94257.47;4925911;29;20219;-80
2021/04/02 05:26:37;;;;;;;7.97;5.70;;;6.30;99.90;;;6.97;47.93;94260.09;4932091;29;20188;-80
2021/04/02 05:29:03;;;;;;;8.30;5.73;;;6.30;99.90;;;6.93;47.99;94261.59;4944368;29;20544;-81
2021/04/02 05:31:33;;;;;;;8.00;5.70;;;6.30;99.90;;;6.94;48.78;94265.84;4940807;28;20713;-81
2021/04/02 05:34:02;;;;;;;7.80;5.73;;;6.20;99.90;;;7.02;48.45;94263.63;4934777;28;736131;-79
2021/04/02 05:36:28;;;;;;;7.17;5.23;;;6.30;99.90;;;7.14;48.92;94272.31;4928989;29;20199;-78
2021/04/02 05:38:53;;;;;;;9.03;5.90;;;6.40;99.90;;;7.26;48.65;94269.63;4940186;29;20319;-79
2021/04/02 05:41:25;;;;;;;7.07;5.43;;;6.50;99.90;;;7.47;48.60;94271.63;4936280;29;20239;-79
2021/04/02 05:44:13;;;;;;;8.37;5.30;;;6.70;99.90;;;7.55;48.65;94281.78;4944806;29;20195;-79
2021/04/02 05:46:51;;;;;;;8.57;5.43;;;6.80;99.90;;;7.62;48.65;94279.78;4984767;28;20560;-79
2021/04/02 05:49:24;;;;;;;7.87;4.90;;;6.90;99.90;;;7.78;48.80;94277.44;5060999;28;20188;-79
2021/04/02 05:51:55;;;;;;;9.10;5.83;;;7.10;99.90;;;8.04;49.07;94279.44;5041983;28;20181;-79
2021/04/02 05:54:42;;;;;;;11.50;6.07;;;7.40;99.90;;;8.19;48.78;94287.63;5040181;28;20173;-84
2021/04/02 05:57:09;;;;;;;10.40;5.90;;;7.50;99.90;;;8.39;49.60;94277.41;5040236;28;20197;-77
2021/04/02 05:59:38;;;;;;;10.43;6.17;;;7.70;99.90;;;8.57;48.94;94287.72;5036846;28;20197;-82
2021/04/02 06:02:07;;;;;;;12.57;5.50;;;7.90;99.90;;;8.78;49.07;94267.66;5018063;28;20278;-81
2021/04/02 06:04:33;;;;;;;10.67;5.50;;;8.10;99.90;;;8.80;49.15;94272.72;5052049;28;20195;-81
2021/04/02 06:07:11;;;;;;;8.80;5.50;;;8.20;99.90;;;8.90;48.91;94275.50;5011530;28;20198;-79
2021/04/02 06:10:06;;;;;;;11.47;5.80;;;8.30;99.90;;;9.00;49.62;94286.97;5022585;28;20270;-86
2021/04/02 06:12:56;;;;;;;11.87;5.83;;;8.40;99.90;;;9.22;49.39;94276.41;5003863;28;20202;-81
2021/04/02 06:15:24;;;;;;;10.97;6.70;;;8.60;99.90;;;9.46;50.00;94272.47;5018421;28;20202;-80
2021/04/02 06:18:12;;;;;;;11.40;6.90;;;8.90;99.90;;;9.76;49.50;94287.88;5033648;28;20236;-81
2021/04/02 06:20:47;;;;;;;14.57;6.90;;;9.10;99.90;;;10.04;49.51;94281.53;5052233;28;20219;-81
2021/04/02 06:23:27;;;;;;;15.20;7.37;;;9.40;99.90;;;10.29;49.51;94295.00;5035597;28;20256;-81
2021/04/02 06:26:09;;;;;;;12.20;6.93;;;9.70;99.90;;;10.56;50.19;94279.03;5017472;28;20290;-81
2021/04/02 06:28:41;;;;;;;14.57;7.30;;;10.00;99.90;;;10.81;50.34;94280.00;5039077;28;20274;-81
2021/04/02 06:31:17;;;;;;;10.73;7.43;;;10.20;99.90;;;11.16;50.25;94271.44;5060457;28;21772;-81
2021/04/02 06:33:54;;;;;;;10.60;6.87;;;10.60;99.90;;;11.70;50.43;94282.53;5047983;28;20226;-81
2021/04/02 06:36:24;;;;;;;11.33;7.30;;;11.10;99.90;;;12.12;50.18;94279.69;5067155;28;20732;-81
2021/04/02 06:38:54;;;;;;;14.83;7.70;;;11.50;99.90;;;12.88;49.85;94295.63;5057078;28;20283;-81
2021/04/02 06:41:23;;;;;;;12.13;7.43;;;12.20;99.90;;;14.26;50.03;94310.81;5044833;28;20180;-81
2021/04/02 06:43:57;;;;;;;14.73;7.57;;;13.40;99.90;;;15.78;50.35;94310.25;5063221;28;20208;-81
2021/04/02 06:46:36;;;;;;;14.93;7.37;;;15.00;99.90;;;18.00;50.34;94324.59;5046084;28;20208;-81
2021/04/02 06:49:19;;;;;;;11.23;7.10;;;17.10;99.90;;;19.81;50.11;94338.25;5032335;28;20201;-82
2021/04/02 06:51:51;;;;;;;12.63;7.77;;;19.30;99.90;;;21.37;50.08;94295.75;5029502;28;20634;-82
2021/04/02 06:54:24;;;;;;;11.30;6.93;;;21.00;99.90;;;22.34;49.67;94272.28;5043407;28;20201;-81
2021/04/02 06:57:19;;;;;;;11.50;6.73;;;22.50;95.70;;;23.57;49.65;94323.09;5024367;28;20181;-82
2021/04/02 07:00:05;;;;;;;14.33;7.63;;;23.90;91.70;;;24.58;48.90;94305.84;5022531;28;20191;-80
2021/04/02 07:02:46;;;;;;;13.77;7.37;;;25.30;84.30;;;25.52;49.21;94304.31;5045140;28;20199;-82
2021/04/02 07:05:22;;;;;;;13.63;7.37;;;26.40;79.50;;;25.81;48.65;94278.69;5064513;28;20187;-81
2021/04/02 07:08:17;;;;;;;11.73;6.60;;;27.10;74.10;;;25.97;48.25;94287.59;5047809;28;20183;-81
2021/04/02 07:10:46;;;;;;;13.93;7.20;;;27.50;72.00;;;26.68;47.78;94286.53;5043158;28;20188;-81
2021/04/02 07:13:25;;;;;;;14.37;8.03;;;28.10;69.00;;;27.33;47.61;94268.41;5025962;28;20701;-81
2021/04/02 07:15:58;;;;;;;11.53;9.07;;;29.00;65.20;;;28.31;47.28;94286.88;5045290;28;20175;-82
2021/04/02 07:18:26;;;;;;;14.00;10.07;;;29.90;62.70;;;28.41;47.04;94207.16;5040690;28;20188;-82
2021/04/02 07:20:54;;;;;;;11.80;9.10;;;30.40;59.90;;;29.40;46.54;94260.28;5048517;28;20203;-82
2021/04/02 07:23:27;;;;;;;11.23;8.57;;;31.30;58.40;;;30.48;46.23;94289.81;5035452;28;20222;-80
2021/04/02 07:25:55;;;;;;;14.23;8.07;;;32.20;55.80;;;31.19;45.95;94227.22;5033800;28;20575;-82
2021/04/02 07:28:24;;;;;;;11.27;7.57;;;33.00;53.10;;;31.90;45.58;94241.03;5045801;28;20176;-81
2021/04/02 07:30:52;;;;;;;15.30;8.10;;;33.80;52.90;;;32.40;45.00;94245.38;5045171;28;20194;-81
2021/04/02 07:33:45;;;;;;;11.32;7.00;;;34.40;51.40;;;33.00;44.70;94307.66;5057939;28;20215;-81
2021/04/02 07:36:16;;;;;;;12.00;6.53;;;35.10;49.60;;;32.91;43.79;94238.59;5009138;28;20205;-82
2021/04/02 07:38:52;;;;;;;11.38;6.60;;;35.30;48.60;;;33.04;43.79;94246.00;4997230;28;20230;-80
2021/04/02 07:41:21;;;;;;;6.40;5.80;;;35.60;48.10;;;32.62;43.57;94231.63;5003270;28;20193;-81
2021/04/02 07:44:01;;;;;;;7.03;5.70;;;35.30;48.50;;;32.95;42.92;94269.59;4981967;28;20193;-81
2021/04/02 07:46:29;;;;;;;10.10;6.93;;;35.80;47.70;;;33.28;42.32;94216.88;5012421;28;20241;-80
2021/04/02 07:49:11;;;;;;;9.73;5.35;;;36.00;46.60;;;32.71;42.07;94237.50;5005275;28;20700;-81
2021/04/02 07:51:51;;;;;;;7.78;5.43;;;35.80;46.60;;;33.30;41.56;94279.72;5007705;28;20184;-82
2021/04/02 07:54:39;;;;;;;10.80;6.03;;;36.20;46.50;;;33.82;40.73;94308.13;5001773;28;20217;-80
2021/04/02 07:57:15;;;;;;;7.15;5.70;;;36.90;45.60;;;33.88;40.40;94218.50;5002773;28;20181;-81
2021/04/02 07:59:51;;;;;;;7.60;5.70;;;37.10;45.30;;;33.76;40.25;94277.53;5022273;28;20676;-79
2021/04/02 08:02:34;;;;;;;7.63;5.70;;;36.80;45.70;;;33.48;39.81;94302.41;4996156;28;20605;-82
2021/04/02 08:05:01;;;;;;;11.75;6.18;;;36.60;45.50;;;33.84;39.43;94191.03;5010024;28;20189;-81
2021/04/02 08:07:42;;;;;;;7.10;5.82;;;36.90;45.00;;;34.70;39.23;94315.78;4993491;28;20967;-81
2021/04/02 08:10:23;;;;;;;8.90;6.57;;;37.60;44.30;;;35.47;39.08;94269.28;5003847;28;20177;-82
2021/04/02 08:12:55;;;;;;;9.77;7.10;;;38.50;43.80;;;34.52;38.66;94092.06;5021268;28;20300;-82
2021/04/02 08:15:24;;;;;;;22.50;12.82;;;38.00;44.30;;;34.38;37.92;94260.19;5038203;28;20192;-81
2021/04/02 08:17:52;;;;;;;16.75;12.75;;;37.40;44.80;;;33.87;38.01;94236.19;5056813;28;20186;-80
2021/04/02 08:20:24;;;;;;;17.20;15.15;;;37.20;44.80;;;32.17;37.86;94175.66;5043618;28;20647;-82
2021/04/02 08:23:12;;;;;;;18.83;14.27;;;35.80;46.40;;;33.94;36.84;94247.94;5067250;28;20187;-81
2021/04/02 08:25:40;;;;;;;18.88;15.15;;;36.80;45.10;;;34.01;37.30;94214.09;5046385;28;20243;-81
2021/04/02 08:28:15;;;;;;;23.85;16.05;;;36.90;45.50;;;34.42;36.59;94256.19;5034075;28;20191;-82
2021/04/02 08:30:54;;;;;;;21.02;15.48;;;37.40;44.90;;;33.71;36.54;94228.44;5062627;28;20184;-82
2021/04/02 08:33:28;;;;;;;21.45;15.73;;;36.80;45.10;;;33.31;35.97;94218.06;5043858;28;20749;-79
2021/04/02 08:35:54;;;;;;;19.52;15.40;;;36.40;45.60;;;32.76;35.80;94234.34;5050562;28;20196;-79
2021/04/02 08:38:21;;;;;;;22.23;15.77;;;35.80;45.30;;;33.35;35.28;94219.59;5037750;28;20180;-82
2021/04/02 08:40:48;;;;;;;20.33;13.23;;;36.10;45.40;;;33.69;34.94;94305.06;5027491;28;20188;-78
2021/04/02 08:43:23;;;;;;;19.23;15.50;;;36.10;45.80;;;33.82;35.32;94250.38;5059449;28;20669;-79
2021/04/02 08:45:51;;;;;;;22.42;17.42;;;36.20;44.90;;;34.16;35.19;94168.75;5043793;28;20562;-80
2021/04/02 08:48:22;;;;;;;20.05;16.27;;;36.60;44.90;;;33.74;34.32;94193.84;5054074;28;20188;-79
2021/04/02 08:50:49;;;;;;;23.58;16.58;;;36.70;44.60;;;33.73;33.93;94250.84;5036561;28;20203;-80
2021/04/02 08:53:22;;;;;;;30.60;17.00;;;36.40;46.20;;;33.75;34.46;94209.16;5043194;28;20183;-80
2021/04/02 08:55:49;;;;;;;17.75;15.65;;;36.90;45.30;;;34.48;34.29;94240.03;5043636;28;20278;-80
2021/04/02 08:58:18;;;;;;;22.73;16.08;;;37.30;44.80;;;34.53;33.50;94132.97;5059531;28;20656;-79
2021/04/02 09:00:49;;;;;;;25.38;16.98;;;37.80;44.30;;;33.70;33.40;94253.59;5069448;28;20175;-82
2021/04/02 09:03:15;;;;;;;23.98;17.23;;;36.90;43.90;;;34.05;33.17;94118.50;5042424;28;20274;-80
2021/04/02 09:05:41;;;;;;;22.63;17.23;;;37.40;44.80;;;33.14;33.53;94251.91;5039940;28;20215;-81
2021/04/02 09:08:09;;;;;;;26.75;17.42;;;36.50;46.20;;;32.70;33.16;94217.50;5043659;28;20203;-81
2021/04/02 09:10:47;;;;;;;28.40;17.10;;;36.30;45.20;;;32.67;32.91;94253.22;5044046;28;20788;-81
2021/04/02 09:13:15;;;;;;;23.58;17.20;;;36.20;45.80;;;32.77;32.74;94222.19;5023876;28;20260;-79
2021/04/02 09:15:48;;;;;;;20.27;16.20;;;36.00;45.20;;;33.62;32.10;94222.59;5038381;28;20176;-80
2021/04/02 09:18:19;;;;;;;20.55;15.90;;;36.60;44.40;;;33.85;32.56;94225.59;5058453;28;20192;-79
2021/04/02 09:20:57;;;;;;;21.80;15.77;;;36.70;44.90;;;34.44;32.28;94275.09;5075530;28;20175;-81
2021/04/02 09:23:34;;;;;;;22.58;16.23;;;37.30;44.10;;;34.62;31.96;94236.41;5040227;28;20176;-80
2021/04/02 09:26:09;;;;;;;21.20;16.38;;;37.90;44.80;;;33.67;31.93;94158.94;5036408;28;20176;-80
2021/04/02 09:28:37;;;;;;;19.80;16.73;;;37.00;44.10;;;33.54;31.46;94163.34;5041894;28;20179;-79
2021/04/02 09:31:37;;;;;;;21.38;16.73;;;36.70;44.60;;;34.15;31.32;94268.25;5049932;28;20266;-79
2021/04/02 09:34:18;;;;;;;22.42;15.38;;;37.10;44.90;;;35.39;30.86;94285.13;4978281;28;20222;-81
2021/04/02 09:36:47;;;;;;;21.70;16.88;;;38.60;42.90;;;35.22;30.75;94219.19;4979455;28;20233;-81
2021/04/02 09:39:23;;;;;;;22.38;16.77;;;38.10;42.80;;;35.10;30.86;94230.72;4963902;28;20289;-80
2021/04/02 09:42:02;;;;;;;18.05;15.75;;;38.40;42.40;;;35.28;29.97;94245.91;4978410;28;20664;-78
2021/04/02 09:44:39;;;;;;;21.58;16.65;;;38.90;42.30;;;35.83;30.45;94275.91;4980185;28;20902;-79
2021/04/02 09:47:12;;;;;;;22.80;16.52;;;39.30;42.40;;;35.65;30.40;94122.84;4977760;28;20174;-79
2021/04/02 09:49:39;;;;;;;21.75;16.63;;;39.50;41.20;;;36.72;29.86;94244.13;4983019;28;20174;-80
2021/04/02 09:52:09;;;;;;;24.05;16.42;;;40.10;41.70;;;37.83;29.73;94180.59;4948648;28;20190;-80
2021/04/02 09:54:39;;;;;;;19.38;15.50;;;41.10;41.60;;;36.86;29.42;94136.84;4967216;28;20190;-80
2021/04/02 09:57:08;;;;;;;21.58;16.27;;;40.50;40.80;;;37.84;29.03;94199.53;4984862;28;20254;-79
2021/04/02 09:59:37;;;;;;;20.00;17.17;;;41.10;41.30;;;37.14;29.01;94099.53;4965156;28;20245;-79
2021/04/02 10:02:15;;;;;;;20.23;17.48;;;41.00;41.40;;;36.46;29.05;94149.84;4979204;28;20193;-79
2021/04/02 10:04:51;;;;;;;23.08;16.95;;;40.40;41.60;;;36.74;28.83;94206.56;4974744;28;20202;-78
2021/04/02 10:07:30;;;;;;;22.15;16.85;;;40.30;41.60;;;38.18;28.52;94262.84;4983770;28;20220;-78
2021/04/02 10:09:58;;;;;;;20.17;17.70;;;42.10;40.90;;;36.88;28.44;94034.13;4996329;28;20198;-79
2021/04/02 10:12:29;;;;;;;18.80;16.80;;;41.10;40.30;;;35.88;27.90;94115.38;5046429;28;20203;-77
2021/04/02 10:15:07;;;;;;;19.92;17.00;;;40.20;42.00;;;35.92;28.27;94154.72;5052001;28;20179;-79
2021/04/02 10:18:07;;;;;;;23.67;18.75;;;39.70;43.10;;;37.71;27.77;94203.44;5056172;28;20187;-79
2021/04/02 10:20:35;;;;;;;33.58;28.58;;;41.10;40.60;;;38.01;27.59;94207.88;4976735;28;20202;-79
2021/04/02 10:23:01;;;;;;;62.67;57.30;;;41.40;40.20;;;37.95;27.25;94193.75;4963849;28;20205;-79
2021/04/02 10:25:29;;;;;;;32.50;29.02;;;41.10;40.30;;;36.98;27.39;94100.25;4945814;28;20258;-78
2021/04/02 10:28:13;;;;;;;19.48;17.25;;;40.60;40.70;;;37.55;27.19;94182.03;4960276;28;20205;-78
2021/04/02 10:30:39;;;;;;;19.67;16.95;;;41.00;40.50;;;37.48;26.78;94119.31;4954827;28;20233;-78
2021/04/02 10:33:19;;;;;;;22.83;17.05;;;40.80;40.70;;;38.38;26.76;94193.53;4976960;28;20293;-78
2021/04/02 10:35:45;;;;;;;21.27;17.15;;;41.60;39.90;;;38.67;26.50;94188.78;4959170;28;20206;-78
2021/04/02 10:38:12;;;;;;;27.02;17.65;;;41.90;39.10;;;38.78;26.43;94158.00;4960082;28;20704;-78
2021/04/02 10:40:39;;;;;;;18.42;16.10;;;42.40;38.60;;;37.58;26.47;94040.03;4976101;28;20655;-80
2021/04/02 10:43:06;;;;;;;19.98;16.02;;;41.20;40.20;;;37.05;26.32;94093.81;4964083;28;20261;-80
2021/04/02 10:45:33;;;;;;;21.73;17.25;;;40.70;40.40;;;38.18;26.24;94165.88;4976476;28;20305;-79
2021/04/02 10:48:01;;;;;;;18.80;16.08;;;41.80;40.00;;;38.72;25.61;94084.88;4959232;28;20592;-79
2021/04/02 10:50:31;;;;;;;20.23;15.68;;;42.10;41.30;;;38.41;25.85;94134.47;4976084;28;20205;-78
2021/04/02 10:52:58;;;;;;;23.80;16.27;;;42.00;39.50;;;37.91;25.83;94107.97;4976942;28;20225;-79